Time;durP1;ratioP1;P1;durP2;ratioP2;P2;SDS_P1;SDS_P2;PMS_P1;PMS_P2;Temp;Humidity;BMP_temperature;BMP_pressure;BME280_temperature;BME280_humidity;BME280_pressure;Samples;Min_cycle;Max_cycle;Signal;HPM_P1;HPM_P2
2021/03/15 00:02:24;;;;;;;5.63;1.63;;;;;;;4.23;100.00;100153.25;5011198;28;20046;-67
2021/03/15 00:04:50;;;;;;;3.87;1.50;;;;;;;4.21;100.00;100152.38;5011558;28;20075;-67
2021/03/15 00:07:15;;;;;;;5.60;1.73;;;;;;;4.19;100.00;100156.66;5010474;28;20084;-67
2021/03/15 00:09:41;;;;;;;4.63;1.40;;;;;;;4.16;100.00;100146.25;5013378;28;20033;-67
2021/03/15 00:12:08;;;;;;;6.43;1.70;;;;;;;4.17;100.00;100154.03;5010262;28;20067;-67
2021/03/15 00:14:33;;;;;;;6.00;1.63;;;;;;;4.14;100.00;100156.56;5009891;28;20033;-67
2021/03/15 00:16:59;;;;;;;7.47;2.00;;;;;;;4.14;100.00;100155.72;5013702;28;20288;-67
2021/03/15 00:19:24;;;;;;;6.33;2.33;;;;;;;4.11;100.00;100157.38;5013002;28;20033;-68
2021/03/15 00:21:50;;;;;;;7.23;1.93;;;;;;;4.14;100.00;100153.13;5012414;28;20083;-67
2021/03/15 00:24:15;;;;;;;5.37;2.20;;;;;;;4.11;100.00;100144.44;5011945;28;20251;-68
2021/03/15 00:26:41;;;;;;;5.87;1.80;;;;;;;4.15;100.00;100149.69;5008997;28;20062;-68
2021/03/15 00:29:06;;;;;;;9.47;2.17;;;;;;;4.08;100.00;100143.50;5004306;28;20108;-68
2021/03/15 00:31:31;;;;;;;8.60;2.67;;;;;;;4.13;100.00;100141.03;5012614;28;20061;-68
2021/03/15 00:33:57;;;;;;;11.00;2.50;;;;;;;4.17;100.00;100140.22;5009882;28;20030;-68
2021/03/15 00:36:22;;;;;;;9.00;2.93;;;;;;;4.14;100.00;100137.59;5010453;28;20033;-68
2021/03/15 00:38:48;;;;;;;5.43;2.23;;;;;;;4.12;100.00;100140.16;5007382;28;20389;-69
2021/03/15 00:41:13;;;;;;;5.53;2.13;;;;;;;4.17;100.00;100145.41;5008929;28;20096;-68
2021/03/15 00:43:39;;;;;;;8.67;2.50;;;;;;;4.17;100.00;100142.81;5009264;28;20061;-68
2021/03/15 00:46:04;;;;;;;12.83;2.97;;;;;;;4.20;100.00;100141.16;5009500;28;20045;-68
2021/03/15 00:48:30;;;;;;;9.53;2.50;;;;;;;4.26;100.00;100146.44;5011431;28;20037;-68
2021/03/15 00:50:55;;;;;;;8.17;2.50;;;;;;;4.30;100.00;100142.19;5007280;28;20061;-68
2021/03/15 00:53:21;;;;;;;8.03;2.63;;;;;;;4.30;100.00;100144.78;5011822;28;20049;-67
2021/03/15 00:55:46;;;;;;;5.27;2.17;;;;;;;4.32;100.00;100137.91;5006308;28;20018;-68
2021/03/15 00:58:12;;;;;;;8.50;1.90;;;;;;;4.29;100.00;100135.28;5010808;28;20049;-68
2021/03/15 01:00:39;;;;;;;4.97;2.00;;;;;;;4.27;100.00;100134.38;5007993;28;20457;-67
2021/03/15 01:03:05;;;;;;;8.90;2.67;;;;;;;4.26;100.00;100137.81;5010124;28;20074;-68
2021/03/15 01:05:38;;;;;;;6.73;2.53;;;;;;;4.27;100.00;100129.22;5008998;28;20314;-67
2021/03/15 01:08:07;;;;;;;;;;;;;;;4.21;100.00;100132.53;5006964;28;20316;-68
2021/03/15 01:10:35;;;;;;;7.17;2.30;;;;;;;4.22;100.00;100136.00;5007223;28;20967;-68
2021/03/15 01:13:02;;;;;;;6.17;2.20;;;;;;;4.19;100.00;100135.94;5008312;28;20300;-68
2021/03/15 01:15:28;;;;;;;4.90;2.27;;;;;;;4.20;100.00;100129.94;5008637;28;20768;-68
2021/03/15 01:17:54;;;;;;;8.07;2.00;;;;;;;4.22;100.00;100130.81;5009627;28;20761;-68
2021/03/15 01:20:19;;;;;;;9.60;2.30;;;;;;;4.16;100.00;100131.59;5008205;28;20297;-68
2021/03/15 01:22:45;;;;;;;6.23;2.03;;;;;;;4.16;100.00;100130.72;5006081;28;20363;-68
2021/03/15 01:25:11;;;;;;;7.23;2.20;;;;;;;4.11;100.00;100131.50;5009450;28;20388;-69
2021/03/15 01:27:37;;;;;;;6.13;2.03;;;;;;;4.07;100.00;100134.88;5008409;28;20556;-69
2021/03/15 01:30:09;;;;;;;5.53;2.20;;;;;;;4.07;100.00;100131.41;5005961;28;20276;-68
2021/03/15 01:32:35;;;;;;;4.13;1.77;;;;;;;4.08;100.00;100130.56;5006145;28;20299;-67
2021/03/15 01:35:00;;;;;;;3.80;1.67;;;;;;;4.00;100.00;100127.88;5010364;28;20025;-67
2021/03/15 01:37:26;;;;;;;5.03;1.60;;;;;;;3.94;100.00;100130.31;5010666;28;20030;-67
2021/03/15 01:39:51;;;;;;;3.27;1.40;;;;;;;3.89;100.00;100124.22;5007652;28;20030;-67
2021/03/15 01:42:17;;;;;;;3.57;1.20;;;;;;;3.85;100.00;100114.63;5005733;28;20033;-68
2021/03/15 01:44:42;;;;;;;4.13;1.33;;;;;;;3.78;100.00;100116.25;5008707;28;20475;-68
2021/03/15 01:47:07;;;;;;;3.03;1.10;;;;;;;3.74;100.00;100110.97;5010573;28;20407;-67
2021/03/15 01:49:33;;;;;;;3.47;1.20;;;;;;;3.70;100.00;100106.59;5013690;28;20454;-67
2021/03/15 01:51:59;;;;;;;2.27;0.83;;;;;;;3.68;100.00;100109.16;5011184;28;20474;-68
2021/03/15 01:54:24;;;;;;;2.23;1.03;;;;;;;3.66;100.00;100109.97;5008069;28;20112;-68
2021/03/15 01:56:50;;;;;;;7.17;1.57;;;;;;;3.62;100.00;100105.56;5012738;28;20456;-68
2021/03/15 01:59:16;;;;;;;5.23;1.20;;;;;;;3.64;100.00;100109.06;5012901;28;20029;-68
2021/03/15 02:04:17;;;;;;;2.00;0.80;;;;;;;3.56;100.00;100105.44;4997430;28;20773;-68
2021/03/15 02:06:44;;;;;;;2.37;1.00;;;;;;;3.54;100.00;100097.66;5008545;28;20309;-68
2021/03/15 02:09:11;;;;;;;2.53;1.10;;;;;;;3.49;100.00;100099.28;5005547;28;20029;-68
2021/03/15 02:11:51;;;;;;;2.10;0.90;;;;;;;3.50;100.00;100098.44;5003718;28;20403;-68
2021/03/15 02:14:16;;;;;;;1.87;0.70;;;;;;;3.48;100.00;100100.09;5008408;28;20285;-68
2021/03/15 02:16:55;;;;;;;2.30;0.83;;;;;;;3.45;100.00;100089.72;5010586;28;20351;-67
2021/03/15 02:19:58;;;;;;;2.27;0.67;;;;;;;3.40;100.00;100099.97;5008644;28;20187;-68
2021/03/15 02:22:49;;;;;;;1.05;0.70;;;;;;;3.43;100.00;100094.00;5007000;28;20391;-68
2021/03/15 02:25:38;;;;;;;1.10;0.70;;;;;;;3.39;100.00;100084.41;4985754;28;20038;-68
2021/03/15 02:28:12;;;;;;;1.87;0.83;;;;;;;3.38;100.00;100086.13;5005960;28;20300;-67
2021/03/15 02:31:02;;;;;;;1.67;0.77;;;;;;;3.36;100.00;100077.47;5012395;28;22103;-68
2021/03/15 02:34:05;;;;;;;1.87;0.80;;;;;;;3.35;100.00;100072.28;5003320;28;20808;-68
2021/03/15 02:36:35;;;;;;;1.58;0.77;;;;;;;3.34;100.00;100067.97;5000501;28;20716;-68
2021/03/15 02:39:05;;;;;;;4.30;0.90;;;;;;;3.32;100.00;100065.34;5004615;28;20037;-68
2021/03/15 02:41:33;;;;;;;1.80;0.80;;;;;;;3.33;100.00;100059.34;5006942;28;20720;-68
2021/03/15 02:44:04;;;;;;;2.10;1.00;;;;;;;3.28;100.00;100055.81;5007559;28;20273;-68
2021/03/15 02:46:31;;;;;;;1.63;1.00;;;;;;;3.28;100.00;100047.19;5009845;28;20272;-68
2021/03/15 02:49:03;;;;;;;2.50;0.90;;;;;;;3.27;100.00;100046.31;5004808;28;20287;-68
2021/03/15 02:51:32;;;;;;;2.75;1.25;;;;;;;3.26;100.00;100049.72;5004768;28;20354;-67
2021/03/15 02:53:59;;;;;;;2.10;0.97;;;;;;;3.26;100.00;100049.72;5002622;28;20030;-68
2021/03/15 02:56:28;;;;;;;2.33;0.83;;;;;;;3.25;100.00;100045.38;4997099;28;20286;-68
2021/03/15 02:58:57;;;;;;;4.17;1.00;;;;;;;3.22;100.00;100037.56;5000605;28;20276;-68
2021/03/15 03:01:24;;;;;;;2.50;0.90;;;;;;;3.23;100.00;100039.31;5004908;28;20392;-68
2021/03/15 03:03:53;;;;;;;2.23;1.00;;;;;;;3.10;100.00;100034.75;5000161;28;20769;-68
2021/03/15 03:06:21;;;;;;;2.20;0.83;;;;;;;3.04;100.00;100043.25;4999275;28;20645;-68
2021/03/15 03:08:51;;;;;;;2.93;0.87;;;;;;;3.01;100.00;100047.47;5001921;28;20633;-68
2021/03/15 03:11:19;;;;;;;2.40;1.00;;;;;;;2.99;100.00;100043.97;5001677;28;20284;-68
2021/03/15 03:13:45;;;;;;;5.33;1.20;;;;;;;2.96;100.00;100044.78;4998304;28;20253;-66
2021/03/15 03:16:11;;;;;;;2.13;1.07;;;;;;;2.99;100.00;100050.00;5003595;28;20631;-66
2021/03/15 03:18:39;;;;;;;2.37;1.10;;;;;;;3.05;100.00;100054.44;5012452;28;20357;-66
2021/03/15 03:21:06;;;;;;;2.20;1.00;;;;;;;3.02;100.00;100054.38;5002082;28;20022;-66
2021/03/15 03:23:35;;;;;;;3.33;1.43;;;;;;;3.07;100.00;100057.94;5007081;28;20765;-65
2021/03/15 03:26:02;;;;;;;2.73;1.30;;;;;;;3.05;100.00;100059.63;5004778;28;20304;-66
2021/03/15 03:28:28;;;;;;;3.03;1.30;;;;;;;3.06;100.00;100061.34;5003225;28;20780;-66
2021/03/15 03:30:56;;;;;;;3.60;1.43;;;;;;;3.10;100.00;100063.16;5004890;28;20296;-66
2021/03/15 03:33:21;;;;;;;2.87;1.13;;;;;;;3.07;100.00;100058.81;5004217;28;20100;-66
2021/03/15 03:35:47;;;;;;;2.70;1.27;;;;;;;3.09;100.00;100061.41;5006138;28;20304;-66
2021/03/15 03:38:14;;;;;;;3.83;1.40;;;;;;;3.07;100.00;100060.53;5001062;28;20030;-66
2021/03/15 03:40:40;;;;;;;2.93;1.17;;;;;;;3.07;100.00;100063.09;5000170;28;20652;-66
2021/03/15 03:43:06;;;;;;;2.83;1.20;;;;;;;3.13;100.00;100063.22;5005370;28;20297;-66
2021/03/15 03:45:31;;;;;;;4.57;1.70;;;;;;;3.14;100.00;100070.13;5000250;28;20386;-66
2021/03/15 03:47:57;;;;;;;2.87;1.20;;;;;;;3.12;100.00;100069.22;5008560;28;20042;-68
2021/03/15 03:50:29;;;;;;;2.50;1.37;;;;;;;3.17;100.00;100075.38;5003015;28;20025;-68
2021/03/15 03:52:58;;;;;;;2.93;1.27;;;;;;;3.18;100.00;100072.81;4997626;28;20277;-68
2021/03/15 03:55:29;;;;;;;3.73;1.37;;;;;;;3.17;100.00;100075.38;5009705;28;20362;-68
2021/03/15 03:57:56;;;;;;;3.58;1.42;;;;;;;3.20;100.00;100075.44;5004894;28;20288;-68
2021/03/15 04:00:22;;;;;;;5.57;1.40;;;;;;;3.17;100.00;100083.13;4999680;28;20085;-68
2021/03/15 04:02:54;;;;;;;2.73;1.30;;;;;;;3.15;100.00;100074.44;5007240;28;20293;-68
2021/03/15 04:05:28;;;;;;;4.57;1.80;;;;;;;3.08;100.00;100072.59;4998397;28;20471;-68
2021/03/15 04:08:02;;;;;;;4.17;1.23;;;;;;;3.11;100.00;100072.66;5001867;28;20052;-68
2021/03/15 04:10:30;;;;;;;3.10;1.10;;;;;;;3.07;100.00;100081.19;5003808;28;20365;-68
2021/03/15 04:13:03;;;;;;;4.50;1.27;;;;;;;3.12;100.00;100076.97;4999762;28;20281;-66
2021/03/15 04:15:29;;;;;;;3.67;1.03;;;;;;;3.00;100.00;100074.13;5002915;28;20284;-66
2021/03/15 04:17:57;;;;;;;3.83;1.27;;;;;;;2.92;100.00;100080.00;4998354;28;20348;-68
2021/03/15 04:20:30;;;;;;;2.87;1.20;;;;;;;2.74;100.00;100074.41;5002706;28;20293;-68
2021/03/15 04:22:58;;;;;;;6.93;1.90;;;;;;;2.69;100.00;100086.38;5004532;28;20346;-66
2021/03/15 04:25:28;;;;;;;4.13;1.47;;;;;;;2.70;100.00;100077.78;5003238;28;20342;-66
2021/03/15 04:27:55;;;;;;;3.87;1.27;;;;;;;2.57;100.00;100086.09;5000844;28;20289;-66
2021/03/15 04:30:21;;;;;;;3.27;1.30;;;;;;;2.55;100.00;100082.59;5003266;28;20780;-66
2021/03/15 04:32:52;;;;;;;5.50;1.90;;;;;;;2.60;100.00;100083.56;5003796;28;20283;-66
2021/03/15 04:35:27;;;;;;;4.67;1.47;;;;;;;2.60;100.00;100086.16;5000832;28;20291;-65
2021/03/15 04:37:53;;;;;;;3.60;1.83;;;;;;;2.59;100.00;100074.06;5006813;28;20626;-66
2021/03/15 04:40:22;;;;;;;4.63;1.80;;;;;;;2.58;100.00;100082.66;4997461;28;20281;-66
2021/03/15 04:42:48;;;;;;;4.33;1.77;;;;;;;2.64;100.00;100082.78;5003220;28;20022;-66
2021/03/15 04:45:15;;;;;;;4.20;1.70;;;;;;;2.68;100.00;100094.94;5004331;28;20364;-66
2021/03/15 04:47:42;;;;;;;5.10;1.83;;;;;;;2.74;100.00;100089.91;4996803;28;20289;-66
2021/03/15 04:50:10;;;;;;;5.33;2.20;;;;;;;2.85;100.00;100097.91;4999339;28;20295;-66
2021/03/15 04:52:40;;;;;;;5.10;1.93;;;;;;;2.91;100.00;100093.75;4997628;28;20444;-66
2021/03/15 04:55:08;;;;;;;8.47;1.83;;;;;;;2.94;100.00;100088.66;4997063;28;20281;-66
2021/03/15 04:57:35;;;;;;;4.53;1.87;;;;;;;2.99;100.00;100090.47;4994866;28;20312;-66
2021/03/15 05:00:05;;;;;;;6.47;2.03;;;;;;;2.98;100.00;100093.88;5002687;28;20811;-68
2021/03/15 05:02:32;;;;;;;4.47;1.90;;;;;;;3.01;100.00;100091.34;5006955;28;20304;-68
2021/03/15 05:04:59;;;;;;;7.27;2.10;;;;;;;3.02;100.00;100090.53;5008185;28;20276;-68
2021/03/15 05:07:25;;;;;;;6.80;2.07;;;;;;;3.04;100.00;100091.44;4997552;28;20769;-68
2021/03/15 05:09:51;;;;;;;7.43;2.00;;;;;;;3.05;100.00;100090.59;5005705;28;20290;-68
2021/03/15 05:12:17;;;;;;;4.67;1.83;;;;;;;3.10;100.00;100094.16;5004316;28;20029;-68
2021/03/15 05:14:44;;;;;;;5.93;1.90;;;;;;;3.11;100.00;100098.47;5001243;28;20033;-68
2021/03/15 05:17:10;;;;;;;5.53;1.73;;;;;;;3.11;100.00;100094.19;5002972;28;20304;-68
2021/03/15 05:19:39;;;;;;;5.57;2.07;;;;;;;3.10;100.00;100097.59;4997881;28;20285;-68
2021/03/15 05:22:06;;;;;;;6.77;2.73;;;;;;;3.14;100.00;100090.78;4997384;28;20281;-68
2021/03/15 05:24:34;;;;;;;4.23;1.87;;;;;;;3.24;100.00;100100.47;4998570;28;20284;-67
2021/03/15 05:27:00;;;;;;;8.20;2.10;;;;;;;3.26;100.00;100103.09;4995129;28;20837;-68
2021/03/15 05:29:27;;;;;;;8.00;2.43;;;;;;;3.26;100.00;100097.91;4996425;28;20348;-68
2021/03/15 05:31:53;;;;;;;4.73;2.00;;;;;;;3.28;100.00;100101.44;4996577;28;20281;-68
2021/03/15 05:34:22;;;;;;;5.73;2.33;;;;;;;3.33;100.00;100097.22;5004926;28;20291;-68
2021/03/15 05:36:50;;;;;;;8.17;2.17;;;;;;;3.34;100.00;100099.84;5004972;28;20040;-68
2021/03/15 05:39:16;;;;;;;5.37;2.20;;;;;;;3.30;100.00;100082.53;5003641;28;20281;-68
2021/03/15 05:41:46;;;;;;;5.63;2.30;;;;;;;3.39;100.00;100093.06;5000024;28;20289;-68
2021/03/15 05:44:20;;;;;;;4.60;1.90;;;;;;;3.39;100.00;100098.22;4998707;28;20034;-68
2021/03/15 05:47:23;;;;;;;7.03;2.53;;;;;;;3.45;100.00;100097.47;4999661;28;20280;-68
2021/03/15 05:50:04;;;;;;;5.20;2.10;;;;;;;3.46;100.00;100094.91;5005456;28;20351;-68
2021/03/15 05:52:48;;;;;;;7.03;2.57;;;;;;;3.46;100.00;100092.34;4995786;28;20482;-68
2021/03/15 05:55:26;;;;;;;5.57;2.23;;;;;;;3.51;100.00;100090.72;4994408;28;20731;-68
2021/03/15 05:58:30;;;;;;;5.40;2.23;;;;;;;3.53;100.00;100083.88;5002737;28;20788;-68
2021/03/15 06:01:03;;;;;;;7.27;2.40;;;;;;;3.47;100.00;100094.06;5001626;28;20284;-68
2021/03/15 06:03:58;;;;;;;6.53;2.57;;;;;;;3.45;100.00;100087.13;5002048;28;20322;-67
2021/03/15 06:06:26;;;;;;;6.70;2.30;;;;;;;3.42;100.00;100082.78;4999607;28;20285;-68
2021/03/15 06:09:02;;;;;;;6.77;2.43;;;;;;;3.30;100.00;100082.53;4996704;28;20296;-68
2021/03/15 06:11:36;;;;;;;5.93;2.30;;;;;;;3.33;100.00;100085.19;4994678;28;20273;-68
2021/03/15 06:14:03;;;;;;;4.53;1.70;;;;;;;3.34;100.00;100081.75;5003764;28;20300;-68
2021/03/15 06:16:29;;;;;;;10.60;2.70;;;;;;;3.32;100.00;100073.09;5003546;28;20324;-68
2021/03/15 06:18:59;;;;;;;6.97;2.30;;;;;;;3.42;100.00;100085.38;5004125;28;20272;-68
2021/03/15 06:21:25;;;;;;;6.63;2.37;;;;;;;3.47;100.00;100085.44;4999861;28;20281;-68
2021/03/15 06:23:52;;;;;;;6.67;2.00;;;;;;;3.48;100.00;100075.13;4998367;28;20303;-68
2021/03/15 06:26:19;;;;;;;9.37;2.23;;;;;;;3.58;100.00;100085.66;4997399;28;20030;-68
2021/03/15 06:28:44;;;;;;;5.97;2.30;;;;;;;3.64;100.00;100083.22;4999498;28;20752;-68
2021/03/15 06:31:10;;;;;;;9.93;3.53;;;;;;;3.67;100.00;100084.13;5003266;28;20307;-67
2021/03/15 06:33:36;;;;;;;5.77;2.13;;;;;;;3.74;100.00;100085.09;5000169;28;20026;-66
2021/03/15 06:36:04;;;;;;;4.80;1.30;;;;;;;3.82;100.00;100083.53;4998435;28;20288;-66
2021/03/15 06:38:32;;;;;;;6.47;1.93;;;;;;;3.91;100.00;100088.91;5001396;28;20058;-65
2021/03/15 06:41:04;;;;;;;5.07;2.17;;;;;;;3.91;100.00;100083.72;4998125;28;20816;-65
2021/03/15 06:43:30;;;;;;;7.93;2.70;;;;;;;3.98;100.00;100084.69;5000784;28;20277;-65
2021/03/15 06:45:56;;;;;;;7.13;2.40;;;;;;;4.06;100.00;100084.00;4999448;28;20360;-66
2021/03/15 06:48:22;;;;;;;8.77;2.37;;;;;;;4.13;100.00;100084.97;5011908;28;20363;-66
2021/03/15 06:50:49;;;;;;;7.43;2.37;;;;;;;4.18;100.00;100082.47;5004778;28;20101;-66
2021/03/15 06:53:15;;;;;;;6.37;2.07;;;;;;;4.20;100.00;100096.28;5003268;28;20277;-65
2021/03/15 06:55:51;;;;;;;4.60;2.20;;;;;;;4.15;100.00;100092.75;5007838;28;20296;-66
2021/03/15 06:58:28;;;;;;;6.30;2.40;;;;;;;4.25;100.00;100092.09;4998402;28;20499;-65
2021/03/15 07:01:09;;;;;;;7.67;2.50;;;;;;;4.53;100.00;100101.16;5002402;28;20270;-66
2021/03/15 07:03:35;;;;;;;6.37;2.10;;;;;;;4.56;100.00;100102.06;5001960;28;20293;-65
2021/03/15 07:06:01;;;;;;;8.17;2.50;;;;;;;4.48;100.00;100093.31;5004825;28;20342;-66
2021/03/15 07:08:27;;;;;;;5.70;2.20;;;;;;;4.44;100.00;100091.53;5006217;28;20283;-65
2021/03/15 07:10:55;;;;;;;15.53;2.50;;;;;;;4.39;100.00;100093.19;5000017;28;20646;-67
2021/03/15 07:13:25;;;;;;;4.77;2.00;;;;;;;4.48;100.00;100093.31;4999763;28;20040;-67
2021/03/15 07:15:53;;;;;;;9.87;2.23;;;;;;;4.69;100.00;100096.25;4999622;28;20281;-67
2021/03/15 07:18:24;;;;;;;9.07;2.10;;;;;;;4.96;100.00;100092.31;5002897;28;20284;-68
2021/03/15 07:20:57;;;;;;;5.73;1.93;;;;;;;5.17;100.00;100105.56;5008541;28;20630;-68
2021/03/15 07:23:41;;;;;;;6.60;2.20;;;;;;;4.96;100.00;100098.34;5010377;28;20786;-67
2021/03/15 07:26:21;;;;;;;7.23;2.50;;;;;;;4.92;100.00;100100.91;5006336;28;20286;-68
2021/03/15 07:28:48;;;;;;;4.80;1.50;;;;;;;4.87;100.00;100100.84;5002201;28;20281;-67
2021/03/15 07:31:22;;;;;;;5.13;1.07;;;;;;;4.73;100.00;100107.53;5001328;28;20285;-67
2021/03/15 07:33:56;;;;;;;6.23;1.50;;;;;;;4.79;100.00;100109.34;5015657;28;20681;-67
2021/03/15 07:36:29;;;;;;;6.63;1.70;;;;;;;4.79;100.00;100110.22;5004211;28;20277;-67
2021/03/15 07:38:56;;;;;;;5.23;1.60;;;;;;;4.91;100.00;100109.50;5012976;28;20772;-67
2021/03/15 07:41:22;;;;;;;4.53;1.70;;;;;;;4.87;100.00;100112.91;5017355;28;20348;-67
2021/03/15 07:43:48;;;;;;;9.67;1.77;;;;;;;4.89;100.00;100113.81;5006979;28;20293;-67
2021/03/15 07:46:28;;;;;;;3.87;1.63;;;;;;;4.88;100.00;100115.53;5010591;28;20284;-67
2021/03/15 07:48:55;;;;;;;15.23;2.30;;;;;;;4.92;100.00;100121.63;5020629;28;20845;-67
2021/03/15 07:51:29;;;;;;;10.23;2.77;;;;;;;4.94;100.00;100115.59;5008551;28;20280;-67
2021/03/15 07:54:11;;;;;;;9.87;2.30;;;;;;;4.92;100.00;100129.38;5021394;28;20778;-67
2021/03/15 07:56:37;;;;;;;10.93;2.07;;;;;;;4.88;100.00;100125.88;5023760;28;20632;-67
2021/03/15 07:59:04;;;;;;;14.63;2.47;;;;;;;4.93;100.00;100128.53;5031509;28;20308;-67
2021/03/15 08:01:30;;;;;;;5.70;1.87;;;;;;;4.84;100.00;100120.63;5016499;28;20288;-67
2021/03/15 08:03:56;;;;;;;12.93;3.33;;;;;;;4.91;100.00;100125.06;5024046;28;20289;-67
2021/03/15 08:06:22;;;;;;;14.13;2.90;;;;;;;5.13;100.00;100134.88;5004461;28;20280;-67
2021/03/15 08:08:49;;;;;;;6.40;1.93;;;;;;;5.17;100.00;100139.25;5013573;28;20276;-67
2021/03/15 08:11:16;;;;;;;8.30;2.50;;;;;;;5.07;100.00;100137.38;5017893;28;20026;-67
2021/03/15 08:13:55;;;;;;;9.33;2.10;;;;;;;4.89;100.00;100131.94;5026084;28;20280;-67
2021/03/15 08:16:24;;;;;;;9.03;2.23;;;;;;;4.87;100.00;100131.06;5014588;28;20283;-67
2021/03/15 08:18:51;;;;;;;11.77;1.80;;;;;;;4.86;100.00;100131.91;5020630;28;20273;-68
2021/03/15 08:21:32;;;;;;;7.13;1.70;;;;;;;4.88;100.00;100133.66;5014783;28;20764;-67
2021/03/15 08:23:58;;;;;;;11.77;2.67;;;;;;;4.96;100.00;100139.81;5013534;28;20291;-68
2021/03/15 08:26:24;;;;;;;14.63;2.10;;;;;;;5.18;100.00;100109.91;5017710;28;20276;-67
2021/03/15 08:29:03;;;;;;;4.50;1.80;;;;;;;5.49;100.00;100128.47;5017504;28;20356;-66
2021/03/15 08:31:33;;;;;;;10.00;2.03;;;;;;;5.44;100.00;100133.56;5006197;28;20283;-66
2021/03/15 08:33:59;;;;;;;9.03;1.57;;;;;;;5.40;100.00;100136.13;5005289;28;20277;-66
2021/03/15 08:36:25;;;;;;;9.40;2.03;;;;;;;5.32;100.00;100140.31;5005730;28;20359;-66
2021/03/15 08:38:50;;;;;;;10.80;3.13;;;;;;;5.37;100.00;100141.25;5020252;28;20124;-66
2021/03/15 08:41:27;;;;;;;6.53;1.67;;;;;;;5.42;100.00;100129.22;5003906;28;20454;-66
2021/03/15 08:43:54;;;;;;;12.53;2.37;;;;;;;5.42;100.00;100139.59;5005892;28;20041;-66
2021/03/15 08:46:33;;;;;;;9.40;1.80;;;;;;;5.39;100.00;100147.34;5017000;28;20370;-67
2021/03/15 08:49:05;;;;;;;8.53;2.23;;;;;;;5.53;100.00;100148.38;5017441;28;20467;-66
2021/03/15 08:51:33;;;;;;;10.77;1.88;;;;;;;5.72;100.00;100145.19;5012192;28;20368;-66
2021/03/15 08:54:04;;;;;;;5.17;1.30;;;;;;;5.85;100.00;100139.28;5015961;28;20029;-66
2021/03/15 08:56:29;;;;;;;8.80;1.57;;;;;;;5.72;100.00;100145.19;5014811;28;20284;-66
2021/03/15 08:58:57;;;;;;;6.83;1.80;;;;;;;5.85;100.00;100141.00;5008907;28;20299;-66
2021/03/15 09:01:47;;;;;;;3.73;1.13;;;;;;;5.97;100.00;100138.56;5016716;28;20026;-66
2021/03/15 09:04:42;;;;;;;6.17;1.10;;;;;;;6.00;100.00;100150.72;5020005;28;20046;-66
2021/03/15 09:07:45;;;;;;;5.00;1.67;;;;;;;6.13;100.00;100152.56;5015653;28;20500;-66
2021/03/15 09:10:22;;;;;;;7.70;1.20;;;;;;;6.31;100.00;100146.72;4986176;28;20045;-66
2021/03/15 09:13:09;;;;;;;3.40;1.33;;;;;;;6.29;100.00;100154.47;5013273;28;20043;-66
2021/03/15 09:15:35;;;;;;;6.83;2.17;;;;;;;6.23;100.00;100154.41;5017493;28;20022;-66
2021/03/15 09:18:54;;;;;;;4.27;1.33;;;;;;;6.73;100.00;100154.88;5014041;28;20076;-66
2021/03/15 09:21:23;;;;;;;9.00;1.87;;;;;;;6.79;100.00;100161.88;5027411;28;20029;-66
2021/03/15 09:23:49;;;;;;;7.23;1.60;;;;;;;6.74;100.00;100156.63;5013862;28;20080;-66
2021/03/15 09:26:35;;;;;;;7.03;1.40;;;;;;;6.68;100.00;100153.09;5002995;28;20029;-66
2021/03/15 09:29:04;;;;;;;4.00;1.17;;;;;;;6.63;100.00;100144.38;5014333;28;20121;-66
2021/03/15 09:31:30;;;;;;;6.97;1.50;;;;;;;6.99;100.00;100134.28;5026217;28;20026;-66
2021/03/15 09:33:56;;;;;;;7.50;1.20;;;;;;;6.93;100.00;100148.97;5018445;28;20354;-66
2021/03/15 09:36:26;;;;;;;7.57;2.20;;;;;;;6.76;100.00;100146.22;5004535;28;20164;-66
2021/03/15 09:38:54;;;;;;;6.93;1.43;;;;;;;7.14;100.00;100153.41;5011123;28;20045;-66
2021/03/15 09:41:22;;;;;;;5.20;1.03;;;;;;;7.73;100.00;100155.47;5009262;28;20030;-66
2021/03/15 09:43:49;;;;;;;5.03;1.10;;;;;;;7.12;100.00;100166.41;5014137;28;20612;-66
2021/03/15 09:46:14;;;;;;;8.50;1.73;;;;;;;7.18;100.00;100168.22;5011381;28;20052;-66
2021/03/15 09:48:40;;;;;;;12.53;1.43;;;;;;;7.14;100.00;100169.03;5018443;28;20871;-66
2021/03/15 09:51:08;;;;;;;11.10;1.50;;;;;;;7.24;100.00;100165.63;5014629;28;20384;-66
2021/03/15 09:53:34;;;;;;;11.00;1.47;;;;;;;7.32;100.00;100166.56;5010207;28;20032;-66
2021/03/15 09:56:07;;;;;;;3.93;1.20;;;;;;;7.31;100.00;100167.41;5013545;28;20463;-66
2021/03/15 09:58:33;;;;;;;5.23;1.10;;;;;;;7.22;100.00;100163.03;5012962;28;20081;-66
2021/03/15 10:00:58;;;;;;;4.93;1.50;;;;;;;7.12;100.00;100170.75;5010810;28;20062;-66
2021/03/15 10:03:27;;;;;;;6.10;1.10;;;;;;;7.14;100.00;100166.44;5017081;28;20054;-66
2021/03/15 10:05:57;;;;;;;8.93;1.20;;;;;;;7.54;100.00;100171.03;5006378;28;20030;-66
2021/03/15 10:08:23;;;;;;;3.87;0.97;;;;;;;7.90;100.00;100180.72;5013281;28;20032;-66
2021/03/15 10:10:50;;;;;;;10.70;1.50;;;;;;;7.90;100.00;100175.53;5004337;28;20453;-66
2021/03/15 10:13:16;;;;;;;5.23;1.03;;;;;;;7.77;100.00;100173.72;5015239;28;20122;-66
2021/03/15 10:15:41;;;;;;;4.43;1.90;;;;;;;7.44;100.00;100179.63;5005218;28;20109;-66
2021/03/15 10:18:07;;;;;;;7.73;1.67;;;;;;;7.08;100.00;100182.00;5010833;28;20382;-66
2021/03/15 10:20:38;;;;;;;3.37;0.90;;;;;;;6.92;100.00;100191.41;5017266;28;20026;-66
2021/03/15 10:23:21;;;;;;;3.50;0.97;;;;;;;7.05;100.00;100196.72;5028009;28;20366;-66
2021/03/15 10:26:00;;;;;;;4.33;1.10;;;;;;;7.28;100.00;100190.81;5011336;28;20030;-66
2021/03/15 10:28:27;;;;;;;9.23;1.27;;;;;;;7.62;100.00;100189.25;5020358;28;20041;-66
2021/03/15 10:30:52;;;;;;;7.57;1.00;;;;;;;7.67;100.00;100199.69;5010045;28;20096;-66
2021/03/15 10:33:19;;;;;;;2.47;0.93;;;;;;;7.69;100.00;100192.78;5012926;28;20033;-66
2021/03/15 10:35:45;;;;;;;5.60;1.37;;;;;;;7.60;100.00;100197.06;5020527;28;20490;-66
2021/03/15 10:38:12;;;;;;;3.67;1.03;;;;;;;7.56;100.00;100194.44;5015903;28;20041;-66
2021/03/15 10:40:38;;;;;;;6.57;0.90;;;;;;;8.02;100.00;100205.06;5023689;28;20038;-66
2021/03/15 10:43:04;;;;;;;2.90;1.00;;;;;;;8.07;100.00;100196.41;5020719;28;20124;-66
2021/03/15 10:45:29;;;;;;;5.97;1.17;;;;;;;8.10;100.00;100193.78;5009381;28;20108;-66
2021/03/15 10:48:06;;;;;;;8.67;1.13;;;;;;;8.36;100.00;100191.31;5008066;28;20104;-66
2021/03/15 10:50:34;;;;;;;5.03;1.60;;;;;;;8.67;98.12;100194.81;5019141;28;20134;-66
2021/03/15 10:53:18;;;;;;;2.20;0.73;;;;;;;8.98;92.30;100187.91;5016756;28;20049;-66
2021/03/15 10:55:45;;;;;;;15.87;1.73;;;;;;;8.53;94.20;100188.72;5011697;28;20072;-66
2021/03/15 10:58:17;;;;;;;2.87;0.80;;;;;;;7.99;95.75;100192.00;5014818;28;20037;-66
2021/03/15 11:00:48;;;;;;;;;;;;;;;7.70;97.87;100192.78;5022910;28;20080;-66
2021/03/15 11:03:25;;;;;;;2.57;0.70;;;;;;;7.55;98.50;100200.50;5001315;28;19924;-66
2021/03/15 11:06:13;;;;;;;7.60;1.67;;;;;;;7.43;100.00;100198.69;5013027;28;20531;-66
2021/03/15 11:08:40;;;;;;;12.67;1.77;;;;;;;7.30;99.35;100202.97;5014372;28;20035;-66
2021/03/15 11:11:23;;;;;;;3.73;1.27;;;;;;;7.26;100.00;100195.97;5018698;28;20033;-66
2021/03/15 11:13:52;;;;;;;11.83;1.47;;;;;;;7.36;100.00;100207.31;5017264;28;20432;-66
2021/03/15 11:16:37;;;;;;;10.50;2.00;;;;;;;8.00;97.62;100197.25;5003683;28;20042;-66
2021/03/15 11:19:03;;;;;;;10.23;1.50;;;;;;;8.55;93.54;100197.41;5005747;28;20042;-66
2021/03/15 11:21:28;;;;;;;7.53;1.50;;;;;;;8.64;92.26;100200.03;5020817;28;20516;-66
2021/03/15 11:23:54;;;;;;;13.47;2.13;;;;;;;8.62;90.02;100219.16;5010542;28;20594;-67
2021/03/15 11:26:19;;;;;;;8.17;1.23;;;;;;;8.70;85.76;100218.28;5008265;28;20033;-67
2021/03/15 11:28:54;;;;;;;22.57;1.73;;;;;;;8.08;90.21;100237.19;5018509;28;20478;-66
2021/03/15 11:31:21;;;;;;;6.60;1.10;;;;;;;7.66;94.57;100200.56;5004486;28;20060;-67
2021/03/15 11:33:55;;;;;;;12.17;1.30;;;;;;;7.21;98.94;100205.50;5004827;28;20031;-67
2021/03/15 11:36:25;;;;;;;3.70;1.07;;;;;;;7.11;100.00;100208.88;5026901;28;20038;-66
2021/03/15 11:38:52;;;;;;;5.73;1.50;;;;;;;7.20;100.00;100210.69;5013407;28;20048;-66
2021/03/15 11:41:20;;;;;;;10.33;1.43;;;;;;;7.41;97.37;100213.44;5019622;28;20034;-66